Bachir Chihani — 7TJA — position and weather

sailwx.info

Track history (hours):
 
Tides and Currents Weather Stations Pressure Air Temp Water Temp Dewpoint Dewpoint Depression Visibility Wind Speed Wind Dir Waves Ship Positions

Bachir Chihani

Last reported at 2016-Apr-22 17:28 UTC. Time now 2016-Apr-28 21:51 UTC.
Position N 39°38' W 009°50'.

Length 280 m; draft 9.6 m.

Type: Tanker. MMSI: 605106010.

Date/timePositionNaut miles runAvg speedWind from/ knotsBaromVisibWave heightAir tempDewpointWater temp
2016-Apr-22 17:28N 39°38' W 009°50'1514.0
2016-Apr-22 16:26N 39°24' W 009°51'1214.0
2016-Apr-22 15:33N 39°11' W 009°51'1413.9
2016-Apr-22 14:34N 38°58' W 009°51'1414.0
2016-Apr-22 13:33N 38°44' W 009°50'1414.0
2016-Apr-22 12:33N 38°30' W 009°48'1414.0
2016-Apr-22 11:33N 38°16' W 009°43'1413.6
2016-Apr-22 10:33N 38°03' W 009°40'1413.7
2016-Apr-22 09:34N 37°50' W 009°36'1413.5
2016-Apr-22 08:33N 37°36' W 009°32'1413.9
2016-Apr-22 07:33N 37°23' W 009°27'1413.7
2016-Apr-22 06:33N 37°10' W 009°23'19812.4
2016-Apr-21 14:32N 35°59' W 005°33'1111.4
2016-Apr-21 13:33N 36°02' W 005°20'50512.8
2016-Apr-19 22:15N 37°18' E 005°02'6413.7
2016-Apr-19 17:32N 37°26' E 006°22'20713.4
2016-Apr-19 02:05N 37°33' E 010°44'713.2
2016-Apr-19 01:33N 37°31' E 010°52'1513.3
2016-Apr-19 00:24N 37°28' E 011°11'1113.4
2016-Apr-18 23:33N 37°22' E 011°24'1313.4
2016-Apr-18 22:33N 37°16' E 011°38'4013.3
2016-Apr-18 19:33N 36°56' E 012°22'1313.3
2016-Apr-18 18:33N 36°50' E 012°37'1913.2
2016-Apr-18 17:06N 36°45' E 012°60'713.2
2016-Apr-18 16:33N 36°43' E 013°08'1313.3
2016-Apr-18 15:34N 36°40' E 013°25'1413.5
2016-Apr-18 14:33N 36°37' E 013°41'1413.5
2016-Apr-18 13:33N 36°35' E 013°58'1413.7
2016-Apr-18 12:33N 36°32' E 014°14'1413.8
2016-Apr-18 11:33N 36°30' E 014°31'1413.6
2016-Apr-18 10:33N 36°26' E 014°48'1413.7
2016-Apr-18 09:33N 36°23' E 015°04'1413.9
2016-Apr-18 08:33N 36°22' E 015°21'1413.8
2016-Apr-18 07:33N 36°21' E 015°38'1413.8
2016-Apr-18 06:33N 36°20' E 015°55'1413.7
2016-Apr-18 05:33N 36°20' E 016°13'1413.6
2016-Apr-18 04:33N 36°19' E 016°29'5613.5
2016-Apr-18 00:26N 36°16' E 017°38'6713.4
2016-Apr-17 19:28N 36°11' E 019°01'1213.5
2016-Apr-17 18:33N 36°11' E 019°16'1613.4
2016-Apr-17 17:23N 36°10' E 019°36'1113.5
2016-Apr-17 16:32N 36°09' E 019°50'16013.4
2016-Apr-17 04:33N 36°02' E 023°08'1313.3
2016-Apr-17 03:33N 36°12' E 023°19'1413.4
2016-Apr-17 02:33N 36°22' E 023°31'1313.3
2016-Apr-17 01:34N 36°31' E 023°42'1313.1
2016-Apr-17 00:34N 36°41' E 023°53'1313.0
2016-Apr-16 23:34N 36°51' E 024°04'1313.3
2016-Apr-16 22:34N 37°03' E 024°08'1313.3
2016-Apr-16 21:33N 37°16' E 024°12'1313.0
2016-Apr-16 20:34N 37°28' E 024°19'1313.1
2016-Apr-16 19:34N 37°38' E 024°30'1313.4
2016-Apr-16 18:33N 37°51' E 024°34'2613.2
2016-Apr-16 16:33N 38°15' E 024°47'2612.9
2016-Apr-16 14:33N 38°38' E 025°02'2812.8
2016-Apr-16 12:20N 39°03' E 025°20'3712.9
2016-Apr-16 09:29N 39°37' E 025°40'1213.1
2016-Apr-16 08:34N 39°49' E 025°44'  
2016-Apr-14 03:32N 40°01' E 026°12'12 5.9
2016-Apr-14 01:29N 39°56' E 025°58'5 5.9
2016-Apr-14 00:34N 39°52' E 025°53'6 5.7
2016-Apr-13 23:34N 39°48' E 025°48'6 6.4
2016-Apr-13 22:33N 39°42' E 025°45'44 8.7
2016-Apr-13 17:30N 39°02' E 025°20'3210.8
2016-Apr-13 14:30N 38°34' E 025°00'4411.1
2016-Apr-13 10:33N 37°55' E 024°37'1310.9
2016-Apr-13 09:22N 37°42' E 024°31'2410.9
2016-Apr-13 07:11N 37°23' E 024°14'1211.6
2016-Apr-13 06:11N 37°12' E 024°11'811.8
2016-Apr-13 05:32N 37°04' E 024°08'1311.7
2016-Apr-13 04:25N 36°52' E 024°04'  
Track history (hours):
 
Tides and Currents Weather Stations Pressure Air Temp Water Temp Dewpoint Dewpoint Depression Visibility Wind Speed Wind Dir Waves Ship Positions

Bachir Chihani

Last reported at 2016-Apr-22 17:28 UTC. Time now 2016-Apr-28 21:51 UTC.
Position N 39°38' W 009°50'.

Length 280 m; draft 9.6 m.

Type: Tanker. MMSI: 605106010.

Date/timePositionNaut miles runAvg speedWind from/ knotsBaromVisibWave heightAir tempDewpointWater temp
2016-Apr-22 17:28N 39°38' W 009°50'1514.0
2016-Apr-22 16:26N 39°24' W 009°51'1214.0
2016-Apr-22 15:33N 39°11' W 009°51'1413.9
2016-Apr-22 14:34N 38°58' W 009°51'1414.0
2016-Apr-22 13:33N 38°44' W 009°50'1414.0
2016-Apr-22 12:33N 38°30' W 009°48'1414.0
2016-Apr-22 11:33N 38°16' W 009°43'1413.6
2016-Apr-22 10:33N 38°03' W 009°40'1413.7
2016-Apr-22 09:34N 37°50' W 009°36'1413.5
2016-Apr-22 08:33N 37°36' W 009°32'1413.9
2016-Apr-22 07:33N 37°23' W 009°27'1413.7
2016-Apr-22 06:33N 37°10' W 009°23'19812.4
2016-Apr-21 14:32N 35°59' W 005°33'1111.4
2016-Apr-21 13:33N 36°02' W 005°20'50512.8
2016-Apr-19 22:15N 37°18' E 005°02'6413.7
2016-Apr-19 17:32N 37°26' E 006°22'20713.4
2016-Apr-19 02:05N 37°33' E 010°44'713.2
2016-Apr-19 01:33N 37°31' E 010°52'1513.3
2016-Apr-19 00:24N 37°28' E 011°11'1113.4
2016-Apr-18 23:33N 37°22' E 011°24'1313.4
2016-Apr-18 22:33N 37°16' E 011°38'4013.3
2016-Apr-18 19:33N 36°56' E 012°22'1313.3
2016-Apr-18 18:33N 36°50' E 012°37'1913.2
2016-Apr-18 17:06N 36°45' E 012°60'713.2
2016-Apr-18 16:33N 36°43' E 013°08'1313.3
2016-Apr-18 15:34N 36°40' E 013°25'1413.5
2016-Apr-18 14:33N 36°37' E 013°41'1413.5
2016-Apr-18 13:33N 36°35' E 013°58'1413.7
2016-Apr-18 12:33N 36°32' E 014°14'1413.8
2016-Apr-18 11:33N 36°30' E 014°31'1413.6
2016-Apr-18 10:33N 36°26' E 014°48'1413.7
2016-Apr-18 09:33N 36°23' E 015°04'1413.9
2016-Apr-18 08:33N 36°22' E 015°21'1413.8
2016-Apr-18 07:33N 36°21' E 015°38'1413.8
2016-Apr-18 06:33N 36°20' E 015°55'1413.7
2016-Apr-18 05:33N 36°20' E 016°13'1413.6
2016-Apr-18 04:33N 36°19' E 016°29'5613.5
2016-Apr-18 00:26N 36°16' E 017°38'6713.4
2016-Apr-17 19:28N 36°11' E 019°01'1213.5
2016-Apr-17 18:33N 36°11' E 019°16'1613.4
2016-Apr-17 17:23N 36°10' E 019°36'1113.5
2016-Apr-17 16:32N 36°09' E 019°50'16013.4
2016-Apr-17 04:33N 36°02' E 023°08'1313.3
2016-Apr-17 03:33N 36°12' E 023°19'1413.4
2016-Apr-17 02:33N 36°22' E 023°31'1313.3
2016-Apr-17 01:34N 36°31' E 023°42'1313.1
2016-Apr-17 00:34N 36°41' E 023°53'1313.0
2016-Apr-16 23:34N 36°51' E 024°04'1313.3
2016-Apr-16 22:34N 37°03' E 024°08'1313.3
2016-Apr-16 21:33N 37°16' E 024°12'1313.0
2016-Apr-16 20:34N 37°28' E 024°19'1313.1
2016-Apr-16 19:34N 37°38' E 024°30'1313.4
2016-Apr-16 18:33N 37°51' E 024°34'2613.2
2016-Apr-16 16:33N 38°15' E 024°47'2612.9
2016-Apr-16 14:33N 38°38' E 025°02'2812.8
2016-Apr-16 12:20N 39°03' E 025°20'3712.9
2016-Apr-16 09:29N 39°37' E 025°40'1213.1
2016-Apr-16 08:34N 39°49' E 025°44'  
2016-Apr-14 03:32N 40°01' E 026°12'12 5.9
2016-Apr-14 01:29N 39°56' E 025°58'5 5.9
2016-Apr-14 00:34N 39°52' E 025°53'6 5.7
2016-Apr-13 23:34N 39°48' E 025°48'6 6.4
2016-Apr-13 22:33N 39°42' E 025°45'44 8.7
2016-Apr-13 17:30N 39°02' E 025°20'3210.8
2016-Apr-13 14:30N 38°34' E 025°00'4411.1
2016-Apr-13 10:33N 37°55' E 024°37'1310.9
2016-Apr-13 09:22N 37°42' E 024°31'2410.9
2016-Apr-13 07:11N 37°23' E 024°14'1211.6
2016-Apr-13 06:11N 37°12' E 024°11'811.8
2016-Apr-13 05:32N 37°04' E 024°08'1311.7
2016-Apr-13 04:25N 36°52' E 024°04'  

Dump ship's entire track history